createdAt,value
2023-11-07T00:05:00.911Z,97918.29
2023-11-07T00:10:08.476Z,97917.34
2023-11-07T00:15:15.538Z,97912.02
2023-11-07T00:20:22.642Z,97933.27
2023-11-07T00:25:29.596Z,97941.57
2023-11-07T00:30:36.618Z,97943.45
2023-11-07T00:35:44.304Z,97950.89
2023-11-07T00:40:51.332Z,97955.52
2023-11-07T00:45:58.106Z,97954.27
2023-11-07T00:51:05.024Z,97954.83
2023-11-07T00:56:12.138Z,97952.71
2023-11-07T01:01:19.510Z,97955.30
2023-11-07T01:06:26.489Z,97959.63
2023-11-07T01:11:33.388Z,97962.98
2023-11-07T01:16:40.128Z,97967.07
2023-11-07T01:21:47.307Z,97969.81
2023-11-07T01:26:54.518Z,97967.30
2023-11-07T01:32:01.497Z,97967.23
2023-11-07T01:37:08.678Z,97963.95
2023-11-07T01:42:15.539Z,97957.42
2023-11-07T01:47:24.827Z,97962.13
2023-11-07T01:52:31.990Z,97966.68
2023-11-07T01:57:40.380Z,97967.64
2023-11-07T02:02:47.395Z,97969.29
2023-11-07T02:07:54.140Z,97971.88
2023-11-07T02:13:00.929Z,97969.27
2023-11-07T02:18:08.119Z,97967.95
2023-11-07T02:23:15.907Z,97963.65
2023-11-07T02:28:23.146Z,97956.13
2023-11-07T02:33:30.353Z,97955.02
2023-11-07T02:38:37.316Z,97961.38
2023-11-07T02:43:44.208Z,97973.05
2023-11-07T02:48:51.348Z,97976.73
2023-11-07T02:53:58.233Z,97972.35
2023-11-07T02:59:05.526Z,97966.55
2023-11-07T03:04:13.325Z,97969.61
2023-11-07T03:09:20.218Z,97982.95
2023-11-07T03:14:26.820Z,97987.73
2023-11-07T03:19:33.696Z,97986.71
2023-11-07T03:24:40.381Z,97984.69
2023-11-07T03:29:46.996Z,97983.35
2023-11-07T03:34:54.137Z,97994.95
2023-11-07T03:40:01.637Z,97992.77
2023-11-07T03:45:09.746Z,97998.63
2023-11-07T03:50:16.853Z,97990.72
2023-11-07T03:55:23.719Z,97992.30
2023-11-07T04:00:30.702Z,97993.23
2023-11-07T04:05:37.526Z,97990.10
2023-11-07T04:10:44.357Z,97987.20
2023-11-07T04:15:51.240Z,97991.90
2023-11-07T04:20:58.888Z,97999.11
2023-11-07T04:26:06.112Z,98007.27
2023-11-07T04:31:12.747Z,98015.43
2023-11-07T04:36:19.477Z,98021.00
2023-11-07T04:41:26.563Z,98023.58
2023-11-07T04:46:33.817Z,98026.33
2023-11-07T04:51:40.840Z,98030.25
2023-11-07T04:56:48.029Z,98033.39
2023-11-07T05:01:55.711Z,98027.81
2023-11-07T05:07:02.648Z,98028.45
2023-11-07T05:12:12.015Z,98022.64
2023-11-07T05:17:19.637Z,98035.35
2023-11-07T05:22:26.649Z,98046.88
2023-11-07T05:27:33.346Z,98046.34
2023-11-07T05:32:40.384Z,98050.88
2023-11-07T05:37:47.730Z,98044.13
2023-11-07T05:42:54.792Z,98047.81
2023-11-07T05:48:01.902Z,98056.22
2023-11-07T05:53:09.986Z,98060.44
2023-11-07T05:58:17.005Z,98064.67
2023-11-07T06:03:23.862Z,98081.98
2023-11-07T06:08:30.853Z,98087.02
2023-11-07T06:13:37.796Z,98097.90
2023-11-07T06:18:44.751Z,98101.90
2023-11-07T06:23:51.633Z,98111.77
2023-11-07T06:28:58.173Z,98126.59
2023-11-07T06:34:06.554Z,98140.92
2023-11-07T06:39:14.134Z,98140.93
2023-11-07T06:44:21.196Z,98141.71
2023-11-07T06:49:28.504Z,98147.98
2023-11-07T06:54:35.625Z,98152.05
2023-11-07T06:59:43.474Z,98156.91
2023-11-07T07:04:51.357Z,98157.61
2023-11-07T07:09:59.637Z,98163.09
2023-11-07T07:15:07.756Z,98164.18
2023-11-07T07:20:15.352Z,98174.83
2023-11-07T07:25:28.476Z,98180.23
2023-11-07T07:30:38.994Z,98181.95
2023-11-07T07:35:47.129Z,98185.40
2023-11-07T07:40:53.967Z,98191.66
2023-11-07T07:46:00.899Z,98197.48
2023-11-07T07:51:08.192Z,98201.55
2023-11-07T07:56:15.617Z,98193.23
2023-11-07T08:01:23.547Z,98193.17
2023-11-07T08:06:31.953Z,98193.87
2023-11-07T08:11:40.356Z,98189.25
2023-11-07T08:16:47.379Z,98188.31
2023-11-07T08:21:54.963Z,98196.85
2023-11-07T08:27:01.992Z,98196.05
2023-11-07T08:32:14.077Z,98202.33
2023-11-07T08:37:21.028Z,98204.59
2023-11-07T08:42:27.999Z,98207.26
2023-11-07T08:47:34.674Z,98207.73
2023-11-07T08:52:41.537Z,98211.58
2023-11-07T08:57:49.897Z,98207.08
2023-11-07T09:02:56.838Z,98209.42
2023-11-07T09:08:06.100Z,98215.68
2023-11-07T09:13:13.546Z,98214.52
2023-11-07T09:18:20.819Z,98217.27
2023-11-07T09:23:28.275Z,98221.59
2023-11-07T09:28:35.447Z,98222.28
2023-11-07T09:33:42.530Z,98224.31
2023-11-07T09:38:53.301Z,98225.09
2023-11-07T09:44:02.400Z,98227.13
2023-11-07T09:49:09.437Z,98229.02
2023-11-07T09:54:17.557Z,98232.30
2023-11-07T09:59:32.049Z,98229.09
2023-11-07T10:04:39.389Z,98226.88
2023-11-07T10:09:48.531Z,98217.47
2023-11-07T10:14:58.914Z,98223.10
2023-11-07T10:20:09.543Z,98224.05
2023-11-07T10:25:29.783Z,98218.17
2023-11-07T10:30:46.063Z,98213.44
2023-11-07T10:35:57.441Z,98210.77
2023-11-07T10:41:04.369Z,98207.16
2023-11-07T10:46:11.734Z,98198.94
2023-11-07T10:51:18.471Z,98201.45
2023-11-07T10:56:25.707Z,98194.70
2023-11-07T11:01:33.346Z,98188.48
2023-11-07T11:06:40.654Z,98191.95
2023-11-07T11:11:50.733Z,98187.95
2023-11-07T11:17:01.168Z,98183.71
2023-11-07T11:22:13.434Z,98181.11
2023-11-07T11:27:21.651Z,98180.48
2023-11-07T11:32:29.896Z,98176.65
2023-11-07T11:37:50.218Z,98174.23
2023-11-07T11:43:09.597Z,98171.33
2023-11-07T11:48:16.976Z,98170.95
2023-11-07T11:53:36.496Z,98165.39
2023-11-07T11:59:03.458Z,98168.44
2023-11-07T12:04:27.685Z,98176.83
2023-11-07T12:09:34.808Z,98177.00
2023-11-07T12:14:53.028Z,98169.80
2023-11-07T12:20:08.294Z,98164.70
2023-11-07T12:25:18.907Z,98162.42
2023-11-07T12:30:27.720Z,98157.42
2023-11-07T12:35:34.766Z,98149.81
2023-11-07T12:40:42.521Z,98146.61
2023-11-07T12:45:49.606Z,98149.83
2023-11-07T12:50:56.428Z,98145.05
2023-11-07T12:56:05.177Z,98152.27
2023-11-07T13:01:12.820Z,98163.09
2023-11-07T13:06:21.878Z,98160.98
2023-11-07T13:11:32.477Z,98163.02
2023-11-07T13:16:41.138Z,98154.24
2023-11-07T13:21:49.949Z,98157.77
2023-11-07T13:26:57.033Z,98162.53
2023-11-07T13:32:04.598Z,98160.67
2023-11-07T13:37:11.500Z,98163.80
2023-11-07T13:42:18.633Z,98161.45
2023-11-07T13:47:25.941Z,98162.94
2023-11-07T13:52:32.658Z,98157.61
2023-11-07T13:57:39.546Z,98155.33
2023-11-07T14:02:46.316Z,98158.47
2023-11-07T14:07:53.488Z,98159.02
2023-11-07T14:13:00.279Z,98154.08
2023-11-07T14:18:15.708Z,98155.09
2023-11-07T14:23:28.309Z,98153.69
2023-11-07T14:28:38.954Z,98152.42
2023-11-07T14:33:49.390Z,98147.41
2023-11-07T14:38:56.532Z,98144.42
2023-11-07T14:44:03.708Z,98141.45
2023-11-07T14:49:11.982Z,98142.31
2023-11-07T14:54:19.062Z,98138.23
2023-11-07T14:59:26.198Z,98136.90
2023-11-07T15:04:33.525Z,98134.31
2023-11-07T15:09:40.170Z,98131.36
2023-11-07T15:14:47.384Z,98129.48
2023-11-07T15:19:54.590Z,98127.83
2023-11-07T15:25:01.408Z,98126.03
2023-11-07T15:30:11.840Z,98124.15
2023-11-07T15:35:19.952Z,98129.16
2023-11-07T15:40:26.934Z,98131.13
2023-11-07T15:45:34.200Z,98129.64
2023-11-07T15:50:43.075Z,98129.63
2023-11-07T15:55:50.008Z,98133.80
2023-11-07T16:00:56.966Z,98133.17
2023-11-07T16:06:04.769Z,98132.95
2023-11-07T16:11:11.610Z,98135.86
2023-11-07T16:16:18.554Z,98137.98
2023-11-07T16:21:26.009Z,98139.61
2023-11-07T16:26:39.670Z,98142.67
2023-11-07T16:31:46.747Z,98142.98
2023-11-07T16:36:53.739Z,98141.81
2023-11-07T16:42:00.716Z,98135.08
2023-11-07T16:47:11.447Z,98134.20
2023-11-07T16:52:19.001Z,98125.73
2023-11-07T16:57:26.126Z,98120.95
2023-11-07T17:02:33.186Z,98119.55
2023-11-07T17:07:40.896Z,98123.23
2023-11-07T17:12:48.325Z,98131.23
2023-11-07T17:17:56.460Z,98139.29
2023-11-07T17:23:04.786Z,98132.71
2023-11-07T17:28:12.357Z,98139.92
2023-11-07T17:33:19.647Z,98144.08
2023-11-07T17:38:26.797Z,98136.87
2023-11-07T17:43:43.579Z,98130.44
2023-11-07T17:48:52.376Z,98132.88
2023-11-07T17:54:00.091Z,98134.75
2023-11-07T17:59:08.602Z,98132.71
2023-11-07T18:04:15.482Z,98131.22
2023-11-07T18:09:22.325Z,98125.73
2023-11-07T18:14:29.480Z,98125.13
2023-11-07T18:19:36.667Z,98121.84
2023-11-07T18:24:45.288Z,98116.98
2023-11-07T18:29:52.083Z,98116.05
2023-11-07T18:34:59.483Z,98113.38
2023-11-07T18:40:07.688Z,98111.89
2023-11-07T18:45:14.735Z,98115.02
2023-11-07T18:50:21.968Z,98127.89
2023-11-07T18:55:29.114Z,98131.09
2023-11-07T19:00:40.253Z,98137.83
2023-11-07T19:05:47.358Z,98140.19
2023-11-07T19:10:54.556Z,98143.02
2023-11-07T19:16:03.798Z,98140.34
2023-11-07T19:21:12.354Z,98138.31
2023-11-07T19:26:21.309Z,98140.13
2023-11-07T19:31:28.500Z,98143.02
2023-11-07T19:36:40.544Z,98143.50
2023-11-07T19:41:48.557Z,98142.40
2023-11-07T19:46:56.178Z,98141.15
2023-11-07T19:52:04.278Z,98143.42
2023-11-07T19:57:12.169Z,98139.58
2023-11-07T20:02:22.668Z,98138.40
2023-11-07T20:07:29.796Z,98138.72
2023-11-07T20:12:36.875Z,98142.08
2023-11-07T20:17:43.702Z,98142.63
2023-11-07T20:22:50.685Z,98138.48
2023-11-07T20:27:57.548Z,98145.29
2023-11-07T20:33:06.603Z,98144.66
2023-11-07T20:38:14.248Z,98139.83
2023-11-07T20:43:21.247Z,98137.70
2023-11-07T20:48:28.265Z,98141.47
2023-11-07T20:53:35.884Z,98132.30
2023-11-07T20:58:43.553Z,98135.13
2023-11-07T21:03:51.020Z,98130.98
2023-11-07T21:08:58.540Z,98130.65
2023-11-07T21:14:05.828Z,98132.07
2023-11-07T21:19:14.218Z,98132.39
2023-11-07T21:24:22.003Z,98127.06
2023-11-07T21:29:28.776Z,98127.84
2023-11-07T21:34:35.937Z,98115.38
2023-11-07T21:39:43.051Z,98107.94
2023-11-07T21:44:49.922Z,98108.48
2023-11-07T21:49:56.877Z,98107.93
2023-11-07T21:55:04.091Z,98107.55
2023-11-07T22:00:16.560Z,98108.17
2023-11-07T22:05:24.029Z,98110.37
2023-11-07T22:10:31.456Z,98115.69
2023-11-07T22:15:38.565Z,98123.14
2023-11-07T22:20:45.702Z,98119.22
2023-11-07T22:25:52.849Z,98113.27
2023-11-07T22:30:59.450Z,98106.68
2023-11-07T22:36:07.217Z,98105.74
2023-11-07T22:41:14.556Z,98103.55
2023-11-07T22:46:21.301Z,98102.05
2023-11-07T22:51:28.374Z,98090.64
2023-11-07T22:56:36.404Z,98082.79
2023-11-07T23:01:43.487Z,98082.02
2023-11-07T23:06:50.669Z,98084.75
2023-11-07T23:12:00.079Z,98090.25
2023-11-07T23:17:07.778Z,98091.19
2023-11-07T23:22:14.809Z,98084.37
2023-11-07T23:27:21.722Z,98078.57
2023-11-07T23:32:28.465Z,98076.61
2023-11-07T23:37:35.643Z,98076.38
2023-11-07T23:42:43.638Z,98066.27
2023-11-07T23:47:50.403Z,98066.27
2023-11-07T23:52:57.081Z,98057.34
2023-11-07T23:58:03.860Z,98060.79
